createdAt,value
2022-08-21T00:00:33.143Z,62.29
2022-08-21T00:03:35.322Z,62.82
2022-08-21T00:06:38.436Z,62.32
2022-08-21T00:09:40.998Z,62.71
2022-08-21T00:12:44.157Z,62.39
2022-08-21T00:15:47.334Z,62.60
2022-08-21T00:18:50.470Z,63.00
2022-08-21T00:21:53.910Z,62.95
2022-08-21T00:24:56.040Z,62.52
2022-08-21T00:27:58.453Z,63.18
2022-08-21T00:31:01.341Z,62.99
2022-08-21T00:34:04.145Z,63.29
2022-08-21T00:37:06.267Z,63.43
2022-08-21T00:40:11.803Z,62.86
2022-08-21T00:43:17.170Z,63.50
2022-08-21T00:46:20.009Z,63.38
2022-08-21T00:49:22.050Z,62.98
2022-08-21T00:52:32.631Z,63.46
2022-08-21T00:55:37.881Z,63.41
2022-08-21T00:58:44.009Z,63.37
2022-08-21T01:01:46.724Z,62.77
2022-08-21T01:04:49.617Z,63.09
2022-08-21T01:07:51.979Z,62.91
2022-08-21T01:10:55.029Z,63.03
2022-08-21T01:14:01.132Z,63.03
2022-08-21T01:17:04.581Z,63.27
2022-08-21T01:20:10.277Z,62.78
2022-08-21T01:23:13.118Z,63.89
2022-08-21T01:26:18.728Z,63.73
2022-08-21T01:29:43.017Z,64.13
2022-08-21T01:32:46.100Z,63.42
2022-08-21T01:35:48.230Z,64.10
2022-08-21T01:38:50.607Z,64.17
2022-08-21T01:41:52.843Z,63.60
2022-08-21T01:44:54.849Z,63.70
2022-08-21T01:47:58.444Z,63.42
2022-08-21T01:51:00.779Z,63.82
2022-08-21T01:54:03.907Z,64.75
2022-08-21T01:57:07.780Z,64.18
2022-08-21T02:00:13.406Z,64.24
2022-08-21T02:03:15.568Z,64.38
2022-08-21T02:06:38.709Z,64.03
2022-08-21T02:09:43.280Z,63.91
2022-08-21T02:12:45.690Z,64.49
2022-08-21T02:15:47.742Z,64.84
2022-08-21T02:18:49.833Z,63.90
2022-08-21T02:21:54.117Z,64.41
2022-08-21T02:24:56.292Z,64.68
2022-08-21T02:27:59.851Z,65.09
2022-08-21T02:31:02.840Z,64.10
2022-08-21T02:34:04.972Z,64.98
2022-08-21T02:37:07.113Z,64.42
2022-08-21T02:40:12.502Z,65.10
2022-08-21T02:43:16.477Z,64.74
2022-08-21T02:46:22.242Z,64.11
2022-08-21T02:49:24.467Z,64.59
2022-08-21T02:52:26.618Z,65.01
2022-08-21T02:55:31.817Z,65.24
2022-08-21T02:58:39.701Z,64.29
2022-08-21T03:01:42.052Z,64.35
2022-08-21T03:04:46.663Z,63.95
2022-08-21T03:07:50.764Z,64.66
2022-08-21T03:10:54.491Z,65.14
2022-08-21T03:13:56.659Z,64.09
2022-08-21T03:16:58.820Z,64.89
2022-08-21T03:20:01.621Z,64.25
2022-08-21T03:23:06.167Z,64.92
2022-08-21T03:26:15.139Z,64.70
2022-08-21T03:29:18.297Z,65.18
2022-08-21T03:32:20.927Z,64.89
2022-08-21T03:35:23.026Z,64.89
2022-08-21T03:38:26.791Z,65.23
2022-08-21T03:41:29.171Z,64.50
2022-08-21T03:44:31.674Z,64.78
2022-08-21T03:47:34.344Z,65.13
2022-08-21T03:50:41.366Z,64.34
2022-08-21T03:53:43.712Z,64.36
2022-08-21T03:56:45.901Z,65.19
2022-08-21T03:59:48.364Z,64.72
2022-08-21T04:02:50.398Z,64.80
2022-08-21T04:05:53.709Z,65.10
2022-08-21T04:08:56.127Z,64.63
2022-08-21T04:12:00.026Z,64.96
2022-08-21T04:15:03.110Z,64.22
2022-08-21T04:18:06.686Z,63.96
2022-08-21T04:21:11.396Z,65.11
2022-08-21T04:24:13.467Z,64.82
2022-08-21T04:27:15.615Z,65.67
2022-08-21T04:30:18.463Z,65.97
2022-08-21T04:33:22.006Z,65.87
2022-08-21T04:36:24.424Z,65.33
2022-08-21T04:39:29.733Z,64.94
2022-08-21T04:42:32.348Z,65.34
2022-08-21T04:45:38.254Z,65.44
2022-08-21T04:48:41.598Z,64.78
2022-08-21T04:51:43.769Z,65.26
2022-08-21T04:54:53.075Z,64.25
2022-08-21T04:57:58.094Z,64.20
2022-08-21T05:01:02.063Z,64.13
2022-08-21T05:04:06.979Z,63.81
2022-08-21T05:07:15.708Z,63.99
2022-08-21T05:10:21.885Z,64.16
2022-08-21T05:13:24.030Z,64.03
2022-08-21T05:16:36.935Z,64.52
2022-08-21T05:19:40.088Z,64.09
2022-08-21T05:22:42.627Z,64.78
2022-08-21T05:25:45.576Z,64.14
2022-08-21T05:28:48.304Z,64.80
2022-08-21T05:31:50.406Z,64.43
2022-08-21T05:34:52.650Z,63.75
2022-08-21T05:37:55.185Z,63.52
2022-08-21T05:40:57.381Z,63.38
2022-08-21T05:43:59.780Z,63.73
2022-08-21T05:47:07.152Z,63.70
2022-08-21T05:50:09.775Z,64.14
2022-08-21T05:53:13.618Z,63.94
2022-08-21T05:56:16.219Z,64.03
2022-08-21T05:59:19.333Z,63.44
2022-08-21T06:02:22.242Z,63.31
2022-08-21T06:05:37.389Z,62.70
2022-08-21T06:08:40.272Z,63.03
2022-08-21T06:11:42.581Z,63.08
2022-08-21T06:14:44.818Z,63.37
2022-08-21T06:17:46.914Z,62.78
2022-08-21T06:20:49.014Z,62.62
2022-08-21T06:23:51.266Z,62.98
2022-08-21T06:26:54.255Z,63.22
2022-08-21T06:29:59.032Z,63.64
2022-08-21T06:33:01.258Z,62.25
2022-08-21T06:36:04.241Z,62.76
2022-08-21T06:39:16.639Z,62.80
2022-08-21T06:42:29.303Z,62.71
2022-08-21T06:45:32.566Z,62.85
2022-08-21T06:48:35.399Z,62.60
2022-08-21T06:51:37.554Z,62.40
2022-08-21T06:54:40.601Z,62.56
2022-08-21T06:57:42.719Z,62.26
2022-08-21T07:00:56.480Z,62.69
2022-08-21T07:04:02.573Z,62.37
2022-08-21T07:07:04.844Z,62.91
2022-08-21T07:10:07.258Z,62.74
2022-08-21T07:13:09.590Z,62.55
2022-08-21T07:16:11.882Z,61.85
2022-08-21T07:19:14.019Z,62.20
2022-08-21T07:22:19.329Z,61.69
2022-08-21T07:25:21.529Z,62.38
2022-08-21T07:28:23.724Z,62.21
2022-08-21T07:31:27.318Z,62.16
2022-08-21T07:34:29.479Z,62.30
2022-08-21T07:37:31.537Z,62.49
2022-08-21T07:40:33.700Z,62.33
2022-08-21T07:43:38.094Z,62.33
2022-08-21T07:46:48.276Z,61.67
2022-08-21T07:49:50.406Z,61.37
2022-08-21T07:52:53.156Z,61.98
2022-08-21T07:55:58.802Z,61.45
2022-08-21T07:59:01.196Z,61.41
2022-08-21T08:02:03.409Z,61.39
2022-08-21T08:05:10.539Z,61.04
2022-08-21T08:08:12.710Z,61.31
2022-08-21T08:11:18.262Z,60.42
2022-08-21T08:14:21.260Z,61.01
2022-08-21T08:17:34.051Z,61.82
2022-08-21T08:20:36.157Z,61.21
2022-08-21T08:23:39.112Z,60.97
2022-08-21T08:26:41.186Z,61.33
2022-08-21T08:29:44.054Z,60.60
2022-08-21T08:32:48.087Z,61.02
2022-08-21T08:35:51.735Z,60.39
2022-08-21T08:38:53.787Z,60.66
2022-08-21T08:42:32.666Z,58.93
2022-08-21T08:45:37.701Z,59.51
2022-08-21T08:49:19.836Z,59.48
2022-08-21T08:52:28.601Z,59.37
2022-08-21T08:55:38.423Z,59.61
2022-08-21T08:58:43.900Z,59.35
2022-08-21T09:01:46.780Z,57.64
2022-08-21T09:04:51.301Z,59.05
2022-08-21T09:08:19.724Z,58.74
2022-08-21T09:11:34.428Z,57.24
2022-08-21T09:15:05.342Z,58.86
2022-08-21T09:18:10.230Z,58.48
2022-08-21T09:21:34.217Z,57.49
2022-08-21T09:25:02.371Z,57.69
2022-08-21T09:28:04.823Z,57.75
2022-08-21T09:31:09.597Z,57.58
2022-08-21T09:34:14.301Z,58.31
2022-08-21T09:37:20.087Z,57.64
2022-08-21T09:40:33.959Z,57.72
2022-08-21T09:43:37.234Z,58.17
2022-08-21T09:46:39.355Z,57.84
2022-08-21T09:49:45.230Z,57.47
2022-08-21T09:52:55.904Z,57.29
2022-08-21T09:56:24.395Z,57.76
2022-08-21T09:59:36.707Z,57.96
2022-08-21T10:02:39.599Z,57.52
2022-08-21T10:06:01.676Z,57.97
2022-08-21T10:09:20.046Z,57.84
2022-08-21T10:12:33.207Z,57.55
2022-08-21T10:15:59.972Z,56.54
2022-08-21T10:19:02.638Z,56.45
2022-08-21T10:22:31.119Z,57.37
2022-08-21T10:25:56.758Z,57.78
2022-08-21T10:29:10.354Z,57.73
2022-08-21T10:32:28.249Z,56.45
2022-08-21T10:35:35.233Z,57.56
2022-08-21T10:38:55.403Z,57.04
2022-08-21T10:42:11.268Z,57.59
2022-08-21T10:45:28.877Z,57.20
2022-08-21T10:48:45.619Z,57.21
2022-08-21T10:52:17.007Z,55.82
2022-08-21T10:55:23.239Z,56.62
2022-08-21T10:58:32.644Z,56.15
2022-08-21T11:01:56.405Z,56.21
2022-08-21T11:05:03.717Z,55.74
2022-08-21T11:08:16.474Z,55.46
2022-08-21T11:11:36.601Z,55.62
2022-08-21T11:14:59.937Z,55.49
2022-08-21T11:18:42.670Z,55.69
2022-08-21T11:22:03.322Z,55.16
2022-08-21T11:25:27.565Z,54.91
2022-08-21T11:28:55.858Z,56.04
2022-08-21T11:32:42.157Z,55.73
2022-08-21T11:35:48.824Z,55.20
2022-08-21T11:39:07.703Z,55.61
2022-08-21T11:42:15.463Z,54.61
2022-08-21T11:45:35.851Z,55.85
2022-08-21T11:48:55.337Z,54.85
2022-08-21T11:52:23.186Z,54.87
2022-08-21T11:55:31.839Z,55.05
2022-08-21T11:58:44.254Z,55.67
2022-08-21T12:01:47.114Z,54.72
2022-08-21T12:05:08.297Z,55.42
2022-08-21T12:08:11.238Z,55.65
2022-08-21T12:11:19.632Z,55.40
2022-08-21T12:14:21.835Z,55.54
2022-08-21T12:17:35.457Z,55.64
2022-08-21T12:20:45.134Z,55.94
2022-08-21T12:24:04.949Z,56.32
2022-08-21T12:27:22.434Z,56.14
2022-08-21T12:30:37.451Z,56.14
2022-08-21T12:33:42.081Z,56.31
2022-08-21T12:36:49.704Z,56.68
2022-08-21T12:39:53.867Z,56.77
2022-08-21T12:43:01.777Z,57.29
2022-08-21T12:46:05.619Z,57.45
2022-08-21T12:49:15.689Z,57.51
2022-08-21T12:52:45.269Z,57.38
2022-08-21T12:55:47.570Z,57.31
2022-08-21T12:59:00.163Z,57.68
2022-08-21T13:02:05.477Z,57.41
2022-08-21T13:05:13.289Z,57.08
2022-08-21T13:08:17.751Z,57.44
2022-08-21T13:11:32.412Z,57.39
2022-08-21T13:14:47.858Z,56.74
2022-08-21T13:17:51.774Z,56.82
2022-08-21T13:21:05.263Z,56.69
2022-08-21T13:24:41.434Z,56.61
2022-08-21T13:27:41.628Z,56.67
2022-08-21T13:30:47.738Z,56.68
2022-08-21T13:33:51.574Z,56.65
2022-08-21T13:37:00.689Z,56.63
2022-08-21T13:40:03.722Z,55.20
2022-08-21T13:43:14.135Z,56.46
2022-08-21T13:46:16.557Z,56.41
2022-08-21T13:49:21.723Z,56.36
2022-08-21T13:52:26.923Z,55.84
2022-08-21T13:55:43.824Z,55.72
2022-08-21T13:58:47.899Z,55.71
2022-08-21T14:01:52.485Z,54.87
2022-08-21T14:05:04.613Z,54.55
2022-08-21T14:08:09.509Z,54.97
2022-08-21T14:11:14.458Z,55.68
2022-08-21T14:14:27.434Z,55.25
2022-08-21T14:17:36.501Z,54.92
2022-08-21T14:20:40.917Z,53.95
2022-08-21T14:23:43.711Z,53.90
2022-08-21T14:26:53.207Z,53.81
2022-08-21T14:30:01.001Z,54.09
2022-08-21T14:33:05.136Z,53.07
2022-08-21T14:36:07.638Z,54.52
2022-08-21T14:39:10.302Z,55.02
2022-08-21T14:42:13.895Z,55.59
2022-08-21T14:45:23.012Z,55.17
2022-08-21T14:48:29.127Z,55.03
2022-08-21T14:51:31.761Z,54.37
2022-08-21T14:54:34.386Z,54.12
2022-08-21T14:57:36.917Z,54.03
2022-08-21T15:00:39.145Z,54.30
2022-08-21T15:03:41.593Z,55.03
2022-08-21T15:06:43.793Z,53.44
2022-08-21T15:09:46.047Z,53.87
2022-08-21T15:12:48.266Z,55.08
2022-08-21T15:15:53.902Z,55.69
2022-08-21T15:18:56.091Z,54.95
2022-08-21T15:21:58.859Z,54.74
2022-08-21T15:25:02.192Z,54.80
2022-08-21T15:28:04.856Z,55.24
2022-08-21T15:31:07.695Z,54.70
2022-08-21T15:34:09.920Z,54.89
2022-08-21T15:37:12.184Z,55.38
2022-08-21T15:40:15.308Z,55.70
2022-08-21T15:43:30.154Z,56.19
2022-08-21T15:46:32.767Z,55.56
2022-08-21T15:49:34.870Z,56.42
2022-08-21T15:52:37.212Z,56.55
2022-08-21T15:55:39.998Z,56.81
2022-08-21T15:58:42.168Z,56.83
2022-08-21T16:01:45.352Z,57.05
2022-08-21T16:04:47.565Z,56.66
2022-08-21T16:07:51.096Z,56.15
2022-08-21T16:10:55.143Z,56.46
2022-08-21T16:13:57.586Z,56.33
2022-08-21T16:16:59.879Z,55.74
2022-08-21T16:20:07.071Z,54.99
2022-08-21T16:23:09.396Z,55.00
2022-08-21T16:26:14.101Z,55.83
2022-08-21T16:29:22.633Z,54.65
2022-08-21T16:32:24.799Z,55.02
2022-08-21T16:35:32.507Z,54.73
2022-08-21T16:38:38.397Z,55.21
2022-08-21T16:41:41.159Z,55.68
2022-08-21T16:44:48.610Z,55.49
2022-08-21T16:47:51.525Z,56.18
2022-08-21T16:50:53.695Z,56.17
2022-08-21T16:53:55.800Z,57.04
2022-08-21T16:56:58.952Z,57.03
2022-08-21T17:00:13.935Z,58.08
2022-08-21T17:03:18.663Z,57.80
2022-08-21T17:06:22.811Z,58.47
2022-08-21T17:09:32.725Z,58.04
2022-08-21T17:12:35.408Z,57.58
2022-08-21T17:15:39.131Z,58.81
2022-08-21T17:18:41.342Z,58.26
2022-08-21T17:21:43.538Z,58.95
2022-08-21T17:24:45.921Z,58.68
2022-08-21T17:27:49.762Z,58.97
2022-08-21T17:30:56.014Z,59.59
2022-08-21T17:33:58.210Z,59.56
2022-08-21T17:37:00.588Z,59.49
2022-08-21T17:40:06.061Z,59.87
2022-08-21T17:43:13.044Z,59.92
2022-08-21T17:46:22.767Z,60.28
2022-08-21T17:49:25.547Z,60.29
2022-08-21T17:52:28.069Z,60.23
2022-08-21T17:55:31.015Z,60.05
2022-08-21T17:58:33.632Z,60.26
2022-08-21T18:01:43.485Z,60.84
2022-08-21T18:04:45.527Z,60.46
2022-08-21T18:07:48.746Z,60.84
2022-08-21T18:10:51.588Z,60.82
2022-08-21T18:13:56.178Z,60.91
2022-08-21T18:17:00.830Z,60.99
2022-08-21T18:20:06.439Z,60.99
2022-08-21T18:23:08.886Z,61.43
2022-08-21T18:26:13.758Z,61.45
2022-08-21T18:29:19.436Z,61.26
2022-08-21T18:32:30.851Z,61.75
2022-08-21T18:35:33.741Z,61.17
2022-08-21T18:38:36.120Z,61.54
2022-08-21T18:41:38.427Z,62.25
2022-08-21T18:44:44.154Z,61.90
2022-08-21T18:47:52.763Z,62.47
2022-08-21T18:50:54.937Z,61.54
2022-08-21T18:53:57.431Z,62.36
2022-08-21T18:57:00.552Z,62.18
2022-08-21T19:00:16.835Z,62.36
2022-08-21T19:03:24.023Z,62.34
2022-08-21T19:06:26.408Z,62.30
2022-08-21T19:09:28.802Z,62.84
2022-08-21T19:12:32.029Z,63.06
2022-08-21T19:15:38.209Z,63.20
2022-08-21T19:18:42.110Z,62.21
2022-08-21T19:21:47.241Z,62.79
2022-08-21T19:24:52.406Z,62.72
2022-08-21T19:27:55.236Z,62.85
2022-08-21T19:31:06.822Z,62.36
2022-08-21T19:34:15.781Z,62.48
2022-08-21T19:37:20.552Z,63.37
2022-08-21T19:40:23.313Z,63.24
2022-08-21T19:43:26.255Z,62.71
2022-08-21T19:46:37.434Z,63.41
2022-08-21T19:49:42.084Z,63.73
2022-08-21T19:56:18.249Z,63.36
2022-08-21T19:59:24.900Z,63.91
2022-08-21T20:02:27.222Z,63.16
2022-08-21T20:05:39.521Z,63.29
2022-08-21T20:08:43.031Z,62.94
2022-08-21T20:11:52.920Z,63.05
2022-08-21T20:14:55.829Z,63.67
2022-08-21T20:17:58.942Z,63.61
2022-08-21T20:21:01.114Z,63.04
2022-08-21T20:24:04.296Z,63.04
2022-08-21T20:27:06.830Z,63.62
2022-08-21T20:30:10.078Z,62.95
2022-08-21T20:33:12.571Z,63.36
2022-08-21T20:36:14.742Z,63.73
2022-08-21T20:39:17.291Z,63.94
2022-08-21T20:42:19.759Z,63.42
2022-08-21T20:45:26.695Z,63.41
2022-08-21T20:48:49.609Z,64.19
2022-08-21T20:51:53.244Z,64.17
2022-08-21T20:55:03.175Z,63.90
2022-08-21T20:58:13.903Z,64.01
2022-08-21T21:01:18.425Z,64.08
2022-08-21T21:04:27.554Z,64.81
2022-08-21T21:07:48.326Z,64.19
2022-08-21T21:10:59.245Z,64.81
2022-08-21T21:14:13.533Z,64.68
2022-08-21T21:17:28.743Z,64.16
2022-08-21T21:20:39.475Z,64.52
2022-08-21T21:23:54.816Z,64.73
2022-08-21T21:27:11.737Z,64.96
2022-08-21T21:30:29.667Z,64.94
2022-08-21T21:33:32.556Z,64.54
2022-08-21T21:40:40.474Z,65.54
2022-08-21T21:44:12.549Z,64.80
2022-08-21T21:47:33.574Z,64.81
2022-08-21T21:51:20.854Z,65.11
2022-08-21T21:54:29.882Z,65.69
2022-08-21T21:57:55.101Z,65.38
2022-08-21T22:01:28.932Z,66.01
2022-08-21T22:04:51.189Z,65.09
2022-08-21T22:08:07.883Z,65.36
2022-08-21T22:11:28.526Z,65.44
2022-08-21T22:14:37.602Z,65.69
2022-08-21T22:17:50.840Z,65.48
2022-08-21T22:21:00.024Z,65.93
2022-08-21T22:24:18.755Z,65.92
2022-08-21T22:27:31.026Z,66.23
2022-08-21T22:30:45.309Z,66.18
2022-08-21T22:34:01.317Z,65.97
2022-08-21T22:37:10.180Z,65.42
2022-08-21T22:40:15.952Z,65.89
2022-08-21T22:43:27.529Z,65.72
2022-08-21T22:46:42.594Z,65.81
2022-08-21T22:49:49.419Z,66.46
2022-08-21T22:53:02.928Z,66.09
2022-08-21T22:56:07.774Z,66.63
2022-08-21T22:59:25.421Z,66.10
2022-08-21T23:02:48.631Z,65.97
2022-08-21T23:05:54.465Z,66.24
2022-08-21T23:08:58.928Z,66.26
2022-08-21T23:12:21.221Z,66.41
2022-08-21T23:15:23.946Z,66.88
2022-08-21T23:18:58.113Z,66.77
2022-08-21T23:22:15.692Z,66.13
2022-08-21T23:25:28.546Z,66.87
2022-08-21T23:28:30.737Z,66.46
2022-08-21T23:31:41.976Z,66.88
2022-08-21T23:35:13.299Z,67.13
2022-08-21T23:38:54.800Z,67.19
2022-08-21T23:42:26.330Z,67.64
2022-08-21T23:45:33.140Z,66.87
2022-08-21T23:49:05.816Z,66.85
2022-08-21T23:52:33.377Z,66.57
2022-08-21T23:55:55.279Z,67.48
2022-08-21T23:59:10.074Z,66.25
